TimeEDT,TemperatureF,Dew PointF,Humidity,Sea Level PressureIn,VisibilityMPH,Wind Direction,Wind SpeedMPH,Gust SpeedMPH,PrecipitationIn,Events,Conditions,WindDirDegrees,DateUTC
12:53 AM,55.9,53.1,90,30.22,9.0,Calm,Calm,-,N/A,,Clear,0,2013-08-17 04:53:00
1:53 AM,55.9,52.0,87,30.24,10.0,Calm,Calm,-,N/A,,Clear,0,2013-08-17 05:53:00
2:53 AM,54.0,51.1,90,30.24,8.0,Calm,Calm,-,N/A,,Clear,0,2013-08-17 06:53:00
3:53 AM,53.1,50.0,89,30.24,7.0,Calm,Calm,-,N/A,,Clear,0,2013-08-17 07:53:00
4:53 AM,53.1,48.9,86,30.25,6.0,Calm,Calm,-,N/A,,Clear,0,2013-08-17 08:53:00
5:53 AM,52.0,48.9,89,30.26,7.0,Calm,Calm,-,N/A,,Clear,0,2013-08-17 09:53:00
6:53 AM,53.1,50.0,89,30.27,5.0,Calm,Calm,-,N/A,,Clear,0,2013-08-17 10:53:00
7:53 AM,57.9,54.0,87,30.28,7.0,Calm,Calm,-,N/A,,Clear,0,2013-08-17 11:53:00
8:53 AM,64.0,57.0,78,30.29,5.0,Calm,Calm,-,N/A,,Haze,0,2013-08-17 12:53:00
9:53 AM,69.1,57.9,68,30.29,9.0,Calm,Calm,-,N/A,,Clear,0,2013-08-17 13:53:00
10:53 AM,73.0,57.9,59,30.29,10.0,East,4.6,-,N/A,,Clear,80,2013-08-17 14:53:00
11:53 AM,75.9,55.0,48,30.28,10.0,ESE,9.2,-,N/A,,Clear,120,2013-08-17 15:53:00
12:53 PM,75.9,53.1,45,30.27,10.0,ESE,6.9,-,N/A,,Scattered Clouds,120,2013-08-17 16:53:00
1:53 PM,77.0,52.0,42,30.26,10.0,ENE,5.8,-,N/A,,Mostly Cloudy,70,2013-08-17 17:53:00
2:53 PM,78.1,54.0,43,30.25,10.0,East,4.6,-,N/A,,Partly Cloudy,100,2013-08-17 18:53:00
3:53 PM,78.1,54.0,43,30.25,10.0,East,4.6,-,N/A,,Scattered Clouds,90,2013-08-17 19:53:00
4:53 PM,79.0,53.1,40,30.24,10.0,Variable,3.5,-,N/A,,Clear,0,2013-08-17 20:53:00
5:53 PM,77.0,52.0,42,30.24,10.0,SSE,4.6,-,N/A,,Clear,150,2013-08-17 21:53:00
6:53 PM,73.9,55.9,53,30.24,10.0,SSE,3.5,-,N/A,,Clear,160,2013-08-17 22:53:00
7:53 PM,70.0,57.9,65,30.25,10.0,Calm,Calm,-,N/A,,Clear,0,2013-08-17 23:53:00
8:53 PM,66.0,59.0,78,30.26,10.0,Calm,Calm,-,N/A,,Clear,0,2013-08-18 00:53:00
9:53 PM,66.0,57.0,73,30.26,10.0,Calm,Calm,-,N/A,,Clear,0,2013-08-18 01:53:00
10:53 PM,64.0,57.9,80,30.26,10.0,Calm,Calm,-,N/A,,Clear,0,2013-08-18 02:53:00
11:53 PM,68.0,55.9,65,30.26,10.0,Calm,Calm,-,N/A,,Clear,0,2013-08-18 03:53:00